sensor_id;sensor_type;location;lat;lon;timestamp;P1;durP1;ratioP1;P2;durP2;ratioP2
13238;SDS011;6686;51.292;4.166;2022-10-31T00:02:17;10.03;;;5.53;;
13238;SDS011;6686;51.292;4.166;2022-10-31T00:05:02;7.77;;;6.20;;
13238;SDS011;6686;51.292;4.166;2022-10-31T00:07:51;8.43;;;5.87;;
13238;SDS011;6686;51.292;4.166;2022-10-31T00:10:36;9.43;;;6.43;;
13238;SDS011;6686;51.292;4.166;2022-10-31T00:13:20;9.77;;;6.13;;
13238;SDS011;6686;51.292;4.166;2022-10-31T00:16:14;8.37;;;6.23;;
13238;SDS011;6686;51.292;4.166;2022-10-31T00:19:03;6.83;;;5.70;;
13238;SDS011;6686;51.292;4.166;2022-10-31T00:21:48;6.07;;;5.27;;
13238;SDS011;6686;51.292;4.166;2022-10-31T00:24:34;8.90;;;6.07;;
13238;SDS011;6686;51.292;4.166;2022-10-31T00:27:20;10.27;;;6.27;;
13238;SDS011;6686;51.292;4.166;2022-10-31T00:30:05;8.93;;;6.30;;
13238;SDS011;6686;51.292;4.166;2022-10-31T00:32:51;9.23;;;6.20;;
13238;SDS011;6686;51.292;4.166;2022-10-31T00:35:37;9.03;;;6.63;;
13238;SDS011;6686;51.292;4.166;2022-10-31T00:38:23;8.53;;;6.23;;
13238;SDS011;6686;51.292;4.166;2022-10-31T00:41:13;8.17;;;5.90;;
13238;SDS011;6686;51.292;4.166;2022-10-31T00:43:54;6.80;;;6.10;;
13238;SDS011;6686;51.292;4.166;2022-10-31T00:46:40;7.00;;;5.77;;
13238;SDS011;6686;51.292;4.166;2022-10-31T00:49:26;6.27;;;5.67;;
13238;SDS011;6686;51.292;4.166;2022-10-31T00:52:12;7.30;;;6.50;;
13238;SDS011;6686;51.292;4.166;2022-10-31T00:54:58;7.93;;;6.20;;
13238;SDS011;6686;51.292;4.166;2022-10-31T00:57:45;9.60;;;5.73;;
13238;SDS011;6686;51.292;4.166;2022-10-31T01:00:30;7.20;;;6.17;;
13238;SDS011;6686;51.292;4.166;2022-10-31T01:03:16;9.57;;;6.70;;
13238;SDS011;6686;51.292;4.166;2022-10-31T01:06:06;7.67;;;5.90;;
13238;SDS011;6686;51.292;4.166;2022-10-31T01:08:51;7.63;;;5.97;;
13238;SDS011;6686;51.292;4.166;2022-10-31T01:11:37;7.07;;;5.67;;
13238;SDS011;6686;51.292;4.166;2022-10-31T01:14:23;7.50;;;5.73;;
13238;SDS011;6686;51.292;4.166;2022-10-31T01:17:10;9.73;;;6.67;;
13238;SDS011;6686;51.292;4.166;2022-10-31T01:19:56;7.43;;;6.10;;
13238;SDS011;6686;51.292;4.166;2022-10-31T01:22:42;9.23;;;6.55;;
13238;SDS011;6686;51.292;4.166;2022-10-31T01:25:31;8.90;;;6.33;;
13238;SDS011;6686;51.292;4.166;2022-10-31T01:28:17;11.60;;;6.80;;
13238;SDS011;6686;51.292;4.166;2022-10-31T01:31:04;8.17;;;7.00;;
13238;SDS011;6686;51.292;4.166;2022-10-31T01:33:49;13.23;;;7.17;;
13238;SDS011;6686;51.292;4.166;2022-10-31T01:36:36;8.93;;;6.80;;
13238;SDS011;6686;51.292;4.166;2022-10-31T01:39:21;8.77;;;7.50;;
13238;SDS011;6686;51.292;4.166;2022-10-31T01:42:06;11.50;;;7.43;;
13238;SDS011;6686;51.292;4.166;2022-10-31T01:44:54;11.07;;;7.73;;
13238;SDS011;6686;51.292;4.166;2022-10-31T01:47:42;10.87;;;7.70;;
13238;SDS011;6686;51.292;4.166;2022-10-31T01:50:36;11.60;;;8.20;;
13238;SDS011;6686;51.292;4.166;2022-10-31T01:53:22;12.20;;;8.07;;
13238;SDS011;6686;51.292;4.166;2022-10-31T01:56:04;10.87;;;7.67;;
13238;SDS011;6686;51.292;4.166;2022-10-31T01:58:50;9.23;;;8.17;;
13238;SDS011;6686;51.292;4.166;2022-10-31T02:01:36;11.83;;;8.40;;
13238;SDS011;6686;51.292;4.166;2022-10-31T02:04:22;11.87;;;9.53;;
13238;SDS011;6686;51.292;4.166;2022-10-31T02:07:15;10.43;;;8.73;;
13238;SDS011;6686;51.292;4.166;2022-10-31T02:10:00;16.30;;;9.27;;
13238;SDS011;6686;51.292;4.166;2022-10-31T02:12:46;12.07;;;9.43;;
13238;SDS011;6686;51.292;4.166;2022-10-31T02:15:32;15.77;;;10.00;;
13238;SDS011;6686;51.292;4.166;2022-10-31T02:18:18;13.93;;;9.17;;
13238;SDS011;6686;51.292;4.166;2022-10-31T02:30:04;15.13;;;8.90;;
13238;SDS011;6686;51.292;4.166;2022-10-31T02:35:55;16.77;;;10.33;;
13238;SDS011;6686;51.292;4.166;2022-10-31T02:42:09;11.57;;;8.53;;
13238;SDS011;6686;51.292;4.166;2022-10-31T02:47:53;13.30;;;9.77;;
13238;SDS011;6686;51.292;4.166;2022-10-31T02:50:40;14.00;;;9.57;;
13238;SDS011;6686;51.292;4.166;2022-10-31T02:53:25;13.10;;;9.37;;
13238;SDS011;6686;51.292;4.166;2022-10-31T02:56:13;15.27;;;9.80;;
13238;SDS011;6686;51.292;4.166;2022-10-31T02:59:01;11.83;;;9.07;;
13238;SDS011;6686;51.292;4.166;2022-10-31T03:04:45;13.10;;;9.00;;
13238;SDS011;6686;51.292;4.166;2022-10-31T03:07:33;14.90;;;9.60;;
13238;SDS011;6686;51.292;4.166;2022-10-31T03:13:26;11.27;;;9.07;;
13238;SDS011;6686;51.292;4.166;2022-10-31T03:16:16;13.37;;;9.40;;
13238;SDS011;6686;51.292;4.166;2022-10-31T03:19:03;12.57;;;10.13;;
13238;SDS011;6686;51.292;4.166;2022-10-31T03:21:55;12.80;;;9.00;;
13238;SDS011;6686;51.292;4.166;2022-10-31T03:24:40;12.17;;;9.43;;
13238;SDS011;6686;51.292;4.166;2022-10-31T03:27:26;12.93;;;9.03;;
13238;SDS011;6686;51.292;4.166;2022-10-31T03:30:11;12.90;;;9.90;;
13238;SDS011;6686;51.292;4.166;2022-10-31T03:32:57;14.23;;;9.87;;
13238;SDS011;6686;51.292;4.166;2022-10-31T03:35:44;10.17;;;8.77;;
13238;SDS011;6686;51.292;4.166;2022-10-31T03:38:29;15.07;;;9.53;;
13238;SDS011;6686;51.292;4.166;2022-10-31T03:41:19;12.33;;;9.20;;
13238;SDS011;6686;51.292;4.166;2022-10-31T03:44:12;12.47;;;8.70;;
13238;SDS011;6686;51.292;4.166;2022-10-31T03:46:53;14.33;;;8.90;;
13238;SDS011;6686;51.292;4.166;2022-10-31T03:49:40;10.23;;;8.47;;
13238;SDS011;6686;51.292;4.166;2022-10-31T03:52:29;12.30;;;8.60;;
13238;SDS011;6686;51.292;4.166;2022-10-31T03:55:16;12.23;;;9.37;;
13238;SDS011;6686;51.292;4.166;2022-10-31T03:58:03;13.00;;;9.47;;
13238;SDS011;6686;51.292;4.166;2022-10-31T04:00:48;12.43;;;8.43;;
13238;SDS011;6686;51.292;4.166;2022-10-31T04:03:34;13.97;;;9.07;;
13238;SDS011;6686;51.292;4.166;2022-10-31T04:06:19;12.37;;;9.47;;
13238;SDS011;6686;51.292;4.166;2022-10-31T04:09:05;13.67;;;8.87;;
13238;SDS011;6686;51.292;4.166;2022-10-31T04:11:52;12.63;;;8.90;;
13238;SDS011;6686;51.292;4.166;2022-10-31T04:14:38;11.77;;;9.70;;
13238;SDS011;6686;51.292;4.166;2022-10-31T04:17:23;15.53;;;9.00;;
13238;SDS011;6686;51.292;4.166;2022-10-31T04:20:09;13.23;;;9.37;;
13238;SDS011;6686;51.292;4.166;2022-10-31T04:22:56;12.43;;;9.82;;
13238;SDS011;6686;51.292;4.166;2022-10-31T04:25:41;12.93;;;9.33;;
13238;SDS011;6686;51.292;4.166;2022-10-31T04:28:27;12.57;;;8.93;;
13238;SDS011;6686;51.292;4.166;2022-10-31T04:31:13;11.87;;;8.90;;
13238;SDS011;6686;51.292;4.166;2022-10-31T04:33:59;13.57;;;9.50;;
13238;SDS011;6686;51.292;4.166;2022-10-31T04:36:45;10.67;;;8.53;;
13238;SDS011;6686;51.292;4.166;2022-10-31T04:39:31;14.53;;;9.67;;
13238;SDS011;6686;51.292;4.166;2022-10-31T04:42:17;12.40;;;8.70;;
13238;SDS011;6686;51.292;4.166;2022-10-31T04:45:03;12.67;;;10.23;;
13238;SDS011;6686;51.292;4.166;2022-10-31T04:47:49;15.07;;;9.50;;
13238;SDS011;6686;51.292;4.166;2022-10-31T04:50:35;14.83;;;9.33;;
13238;SDS011;6686;51.292;4.166;2022-10-31T04:53:21;13.87;;;10.00;;
13238;SDS011;6686;51.292;4.166;2022-10-31T04:56:07;13.53;;;10.97;;
13238;SDS011;6686;51.292;4.166;2022-10-31T04:58:53;11.77;;;9.73;;
13238;SDS011;6686;51.292;4.166;2022-10-31T05:01:39;15.03;;;10.03;;
13238;SDS011;6686;51.292;4.166;2022-10-31T05:04:25;14.87;;;9.37;;
13238;SDS011;6686;51.292;4.166;2022-10-31T05:07:11;11.97;;;8.43;;
13238;SDS011;6686;51.292;4.166;2022-10-31T05:09:57;14.27;;;9.03;;
13238;SDS011;6686;51.292;4.166;2022-10-31T05:12:50;9.97;;;8.20;;
13238;SDS011;6686;51.292;4.166;2022-10-31T05:15:41;13.50;;;9.45;;
13238;SDS011;6686;51.292;4.166;2022-10-31T05:18:28;10.70;;;9.07;;
13238;SDS011;6686;51.292;4.166;2022-10-31T05:21:14;11.85;;;9.63;;
13238;SDS011;6686;51.292;4.166;2022-10-31T05:24:01;14.00;;;9.13;;
13238;SDS011;6686;51.292;4.166;2022-10-31T05:26:48;11.47;;;8.80;;
13238;SDS011;6686;51.292;4.166;2022-10-31T05:29:34;12.20;;;8.53;;
13238;SDS011;6686;51.292;4.166;2022-10-31T05:32:20;11.47;;;7.77;;
13238;SDS011;6686;51.292;4.166;2022-10-31T05:35:14;11.17;;;8.17;;
13238;SDS011;6686;51.292;4.166;2022-10-31T05:37:59;14.03;;;8.50;;
13238;SDS011;6686;51.292;4.166;2022-10-31T05:40:47;13.10;;;8.97;;
13238;SDS011;6686;51.292;4.166;2022-10-31T05:43:33;9.80;;;7.77;;
13238;SDS011;6686;51.292;4.166;2022-10-31T05:46:19;10.87;;;8.10;;
13238;SDS011;6686;51.292;4.166;2022-10-31T05:49:04;11.17;;;8.27;;
13238;SDS011;6686;51.292;4.166;2022-10-31T05:51:50;19.30;;;8.87;;
13238;SDS011;6686;51.292;4.166;2022-10-31T05:54:36;15.37;;;9.50;;
13238;SDS011;6686;51.292;4.166;2022-10-31T05:57:22;12.50;;;8.53;;
13238;SDS011;6686;51.292;4.166;2022-10-31T06:00:08;10.83;;;8.20;;
13238;SDS011;6686;51.292;4.166;2022-10-31T06:02:58;13.30;;;10.20;;
13238;SDS011;6686;51.292;4.166;2022-10-31T06:05:43;13.10;;;9.77;;
13238;SDS011;6686;51.292;4.166;2022-10-31T06:08:29;12.30;;;9.43;;
13238;SDS011;6686;51.292;4.166;2022-10-31T06:11:15;10.43;;;8.20;;
13238;SDS011;6686;51.292;4.166;2022-10-31T06:14:01;9.93;;;8.50;;
13238;SDS011;6686;51.292;4.166;2022-10-31T06:16:51;13.27;;;9.07;;
13238;SDS011;6686;51.292;4.166;2022-10-31T06:19:36;12.23;;;8.70;;
13238;SDS011;6686;51.292;4.166;2022-10-31T06:22:24;14.30;;;8.93;;
13238;SDS011;6686;51.292;4.166;2022-10-31T06:25:13;11.43;;;8.80;;
13238;SDS011;6686;51.292;4.166;2022-10-31T06:27:59;14.00;;;8.63;;
13238;SDS011;6686;51.292;4.166;2022-10-31T06:30:45;10.70;;;9.20;;
13238;SDS011;6686;51.292;4.166;2022-10-31T06:33:31;15.00;;;9.20;;
13238;SDS011;6686;51.292;4.166;2022-10-31T06:36:17;13.77;;;9.43;;
13238;SDS011;6686;51.292;4.166;2022-10-31T06:39:03;12.37;;;9.50;;
13238;SDS011;6686;51.292;4.166;2022-10-31T06:41:49;11.93;;;9.03;;
13238;SDS011;6686;51.292;4.166;2022-10-31T06:44:35;13.10;;;9.43;;
13238;SDS011;6686;51.292;4.166;2022-10-31T06:47:22;14.02;;;9.93;;
13238;SDS011;6686;51.292;4.166;2022-10-31T06:50:09;11.37;;;8.97;;
13238;SDS011;6686;51.292;4.166;2022-10-31T06:52:55;19.63;;;10.47;;
13238;SDS011;6686;51.292;4.166;2022-10-31T06:55:41;14.03;;;10.17;;
13238;SDS011;6686;51.292;4.166;2022-10-31T06:58:27;11.83;;;8.73;;
13238;SDS011;6686;51.292;4.166;2022-10-31T07:01:13;14.87;;;9.23;;
13238;SDS011;6686;51.292;4.166;2022-10-31T07:03:59;13.70;;;9.83;;
13238;SDS011;6686;51.292;4.166;2022-10-31T07:06:45;13.37;;;8.30;;
13238;SDS011;6686;51.292;4.166;2022-10-31T07:09:31;14.07;;;9.40;;
13238;SDS011;6686;51.292;4.166;2022-10-31T07:12:17;11.70;;;9.50;;
13238;SDS011;6686;51.292;4.166;2022-10-31T07:15:03;13.43;;;9.70;;
13238;SDS011;6686;51.292;4.166;2022-10-31T07:17:51;13.63;;;9.93;;
13238;SDS011;6686;51.292;4.166;2022-10-31T07:20:41;14.33;;;9.57;;
13238;SDS011;6686;51.292;4.166;2022-10-31T07:23:27;12.87;;;9.67;;
13238;SDS011;6686;51.292;4.166;2022-10-31T07:26:13;14.53;;;9.67;;
13238;SDS011;6686;51.292;4.166;2022-10-31T07:29:00;15.25;;;10.93;;
13238;SDS011;6686;51.292;4.166;2022-10-31T07:31:47;16.43;;;10.20;;
13238;SDS011;6686;51.292;4.166;2022-10-31T07:34:34;15.43;;;8.87;;
13238;SDS011;6686;51.292;4.166;2022-10-31T07:37:20;14.35;;;10.80;;
13238;SDS011;6686;51.292;4.166;2022-10-31T07:40:07;13.73;;;9.43;;
13238;SDS011;6686;51.292;4.166;2022-10-31T07:42:54;10.40;;;8.77;;
13238;SDS011;6686;51.292;4.166;2022-10-31T07:45:40;14.87;;;9.20;;
13238;SDS011;6686;51.292;4.166;2022-10-31T07:48:26;11.10;;;8.73;;
13238;SDS011;6686;51.292;4.166;2022-10-31T07:51:11;13.33;;;8.97;;
13238;SDS011;6686;51.292;4.166;2022-10-31T07:53:57;13.03;;;8.93;;
13238;SDS011;6686;51.292;4.166;2022-10-31T07:56:43;12.37;;;9.20;;
13238;SDS011;6686;51.292;4.166;2022-10-31T07:59:32;11.20;;;8.60;;
13238;SDS011;6686;51.292;4.166;2022-10-31T08:02:19;11.63;;;8.57;;
13238;SDS011;6686;51.292;4.166;2022-10-31T08:05:04;10.13;;;8.70;;
13238;SDS011;6686;51.292;4.166;2022-10-31T08:07:50;14.60;;;9.43;;
13238;SDS011;6686;51.292;4.166;2022-10-31T08:10:36;14.50;;;9.50;;
13238;SDS011;6686;51.292;4.166;2022-10-31T08:13:25;14.70;;;9.97;;
13238;SDS011;6686;51.292;4.166;2022-10-31T08:16:11;12.57;;;9.57;;
13238;SDS011;6686;51.292;4.166;2022-10-31T08:18:57;12.87;;;9.37;;
13238;SDS011;6686;51.292;4.166;2022-10-31T08:21:42;12.00;;;10.20;;
13238;SDS011;6686;51.292;4.166;2022-10-31T08:24:28;15.87;;;10.00;;
13238;SDS011;6686;51.292;4.166;2022-10-31T08:27:14;15.47;;;10.60;;
13238;SDS011;6686;51.292;4.166;2022-10-31T08:30:00;14.63;;;10.67;;
13238;SDS011;6686;51.292;4.166;2022-10-31T08:32:46;15.90;;;11.00;;
13238;SDS011;6686;51.292;4.166;2022-10-31T08:35:35;21.47;;;10.73;;
13238;SDS011;6686;51.292;4.166;2022-10-31T08:38:21;17.57;;;10.83;;
13238;SDS011;6686;51.292;4.166;2022-10-31T08:41:07;13.33;;;11.20;;
13238;SDS011;6686;51.292;4.166;2022-10-31T08:43:54;16.03;;;11.47;;
13238;SDS011;6686;51.292;4.166;2022-10-31T08:46:40;18.17;;;11.37;;
13238;SDS011;6686;51.292;4.166;2022-10-31T08:49:27;19.00;;;11.73;;
13238;SDS011;6686;51.292;4.166;2022-10-31T08:52:13;17.60;;;13.03;;
13238;SDS011;6686;51.292;4.166;2022-10-31T08:54:59;18.60;;;13.10;;
13238;SDS011;6686;51.292;4.166;2022-10-31T08:57:45;18.13;;;13.97;;
13238;SDS011;6686;51.292;4.166;2022-10-31T09:00:31;21.43;;;13.67;;
13238;SDS011;6686;51.292;4.166;2022-10-31T09:03:18;22.75;;;16.27;;
13238;SDS011;6686;51.292;4.166;2022-10-31T09:06:03;25.60;;;15.93;;
13238;SDS011;6686;51.292;4.166;2022-10-31T09:08:49;22.93;;;15.13;;
13238;SDS011;6686;51.292;4.166;2022-10-31T09:11:35;20.97;;;14.97;;
13238;SDS011;6686;51.292;4.166;2022-10-31T09:14:23;22.70;;;17.10;;
13238;SDS011;6686;51.292;4.166;2022-10-31T09:17:09;19.77;;;15.07;;
13238;SDS011;6686;51.292;4.166;2022-10-31T09:19:55;23.90;;;15.97;;
13238;SDS011;6686;51.292;4.166;2022-10-31T09:22:41;20.37;;;13.97;;
13238;SDS011;6686;51.292;4.166;2022-10-31T09:25:27;17.30;;;13.77;;
13238;SDS011;6686;51.292;4.166;2022-10-31T09:28:13;20.50;;;14.27;;
13238;SDS011;6686;51.292;4.166;2022-10-31T09:30:58;19.43;;;13.47;;
13238;SDS011;6686;51.292;4.166;2022-10-31T09:33:44;18.33;;;14.90;;
13238;SDS011;6686;51.292;4.166;2022-10-31T09:36:30;16.12;;;13.62;;
13238;SDS011;6686;51.292;4.166;2022-10-31T09:39:16;15.20;;;13.30;;
13238;SDS011;6686;51.292;4.166;2022-10-31T09:42:24;21.63;;;15.10;;
13238;SDS011;6686;51.292;4.166;2022-10-31T09:51:33;19.90;;;13.40;;
13238;SDS011;6686;51.292;4.166;2022-10-31T09:54:19;15.00;;;11.80;;
13238;SDS011;6686;51.292;4.166;2022-10-31T09:57:04;15.17;;;11.50;;
13238;SDS011;6686;51.292;4.166;2022-10-31T09:59:49;13.63;;;11.03;;
13238;SDS011;6686;51.292;4.166;2022-10-31T10:02:37;16.67;;;10.73;;
13238;SDS011;6686;51.292;4.166;2022-10-31T10:05:24;14.87;;;10.90;;
13238;SDS011;6686;51.292;4.166;2022-10-31T10:08:17;14.17;;;10.03;;
13238;SDS011;6686;51.292;4.166;2022-10-31T10:11:08;13.37;;;9.23;;
13238;SDS011;6686;51.292;4.166;2022-10-31T10:14:00;14.87;;;10.47;;
13238;SDS011;6686;51.292;4.166;2022-10-31T10:22:36;17.43;;;11.93;;
13238;SDS011;6686;51.292;4.166;2022-10-31T10:25:16;16.13;;;11.20;;
13238;SDS011;6686;51.292;4.166;2022-10-31T10:31:14;16.30;;;10.63;;
13238;SDS011;6686;51.292;4.166;2022-10-31T10:34:41;15.27;;;10.63;;
13238;SDS011;6686;51.292;4.166;2022-10-31T10:37:08;14.93;;;10.67;;
13238;SDS011;6686;51.292;4.166;2022-10-31T10:39:53;15.70;;;10.70;;
13238;SDS011;6686;51.292;4.166;2022-10-31T10:42:37;15.10;;;10.30;;
13238;SDS011;6686;51.292;4.166;2022-10-31T10:45:42;17.50;;;10.67;;
13238;SDS011;6686;51.292;4.166;2022-10-31T10:52:30;15.93;;;9.80;;
13238;SDS011;6686;51.292;4.166;2022-10-31T10:58:14;14.93;;;10.40;;
13238;SDS011;6686;51.292;4.166;2022-10-31T11:00:59;15.87;;;10.40;;
13238;SDS011;6686;51.292;4.166;2022-10-31T11:03:46;12.83;;;10.90;;
13238;SDS011;6686;51.292;4.166;2022-10-31T11:06:32;17.10;;;10.57;;
13238;SDS011;6686;51.292;4.166;2022-10-31T11:09:17;14.40;;;11.30;;
13238;SDS011;6686;51.292;4.166;2022-10-31T11:12:08;18.73;;;11.33;;
13238;SDS011;6686;51.292;4.166;2022-10-31T11:15:15;16.90;;;12.03;;
13238;SDS011;6686;51.292;4.166;2022-10-31T11:17:54;20.00;;;13.07;;
13238;SDS011;6686;51.292;4.166;2022-10-31T11:20:39;20.97;;;13.17;;
13238;SDS011;6686;51.292;4.166;2022-10-31T11:23:25;19.80;;;12.23;;
13238;SDS011;6686;51.292;4.166;2022-10-31T11:26:18;17.40;;;12.43;;
13238;SDS011;6686;51.292;4.166;2022-10-31T11:29:05;16.97;;;12.27;;
13238;SDS011;6686;51.292;4.166;2022-10-31T11:31:52;18.73;;;12.33;;
13238;SDS011;6686;51.292;4.166;2022-10-31T11:34:37;16.47;;;11.50;;
13238;SDS011;6686;51.292;4.166;2022-10-31T11:37:32;17.27;;;12.20;;
13238;SDS011;6686;51.292;4.166;2022-10-31T11:40:20;19.63;;;13.50;;
13238;SDS011;6686;51.292;4.166;2022-10-31T11:43:12;21.03;;;14.13;;
13238;SDS011;6686;51.292;4.166;2022-10-31T11:45:54;19.37;;;14.07;;
13238;SDS011;6686;51.292;4.166;2022-10-31T11:48:45;17.53;;;14.60;;
13238;SDS011;6686;51.292;4.166;2022-10-31T11:51:28;21.73;;;16.40;;
13238;SDS011;6686;51.292;4.166;2022-10-31T11:54:17;25.88;;;18.77;;
13238;SDS011;6686;51.292;4.166;2022-10-31T11:56:58;26.67;;;17.63;;
13238;SDS011;6686;51.292;4.166;2022-10-31T11:59:50;22.63;;;17.47;;
13238;SDS011;6686;51.292;4.166;2022-10-31T12:02:32;26.27;;;18.20;;
13238;SDS011;6686;51.292;4.166;2022-10-31T12:05:25;20.63;;;17.00;;
13238;SDS011;6686;51.292;4.166;2022-10-31T12:08:09;24.37;;;16.83;;
13238;SDS011;6686;51.292;4.166;2022-10-31T12:14:02;22.20;;;17.50;;
13238;SDS011;6686;51.292;4.166;2022-10-31T12:23:18;22.70;;;16.77;;
13238;SDS011;6686;51.292;4.166;2022-10-31T12:29:10;29.77;;;16.13;;
13238;SDS011;6686;51.292;4.166;2022-10-31T12:32:05;22.57;;;15.03;;
13238;SDS011;6686;51.292;4.166;2022-10-31T12:37:58;21.23;;;13.40;;
13238;SDS011;6686;51.292;4.166;2022-10-31T12:41:08;24.20;;;18.20;;
13238;SDS011;6686;51.292;4.166;2022-10-31T12:44:30;26.53;;;16.97;;
13238;SDS011;6686;51.292;4.166;2022-10-31T12:56:45;22.70;;;17.00;;
13238;SDS011;6686;51.292;4.166;2022-10-31T12:59:37;26.90;;;17.90;;
13238;SDS011;6686;51.292;4.166;2022-10-31T13:08:02;26.03;;;17.90;;
13238;SDS011;6686;51.292;4.166;2022-10-31T13:10:50;27.03;;;18.27;;
13238;SDS011;6686;51.292;4.166;2022-10-31T13:13:46;23.43;;;17.53;;
13238;SDS011;6686;51.292;4.166;2022-10-31T13:16:34;24.00;;;17.77;;
13238;SDS011;6686;51.292;4.166;2022-10-31T13:19:20;22.70;;;15.83;;
13238;SDS011;6686;51.292;4.166;2022-10-31T13:22:17;23.03;;;15.70;;
13238;SDS011;6686;51.292;4.166;2022-10-31T13:25:03;21.13;;;14.87;;
13238;SDS011;6686;51.292;4.166;2022-10-31T13:27:57;25.00;;;17.52;;
13238;SDS011;6686;51.292;4.166;2022-10-31T13:30:40;22.27;;;15.63;;
13238;SDS011;6686;51.292;4.166;2022-10-31T13:33:27;22.07;;;15.50;;
13238;SDS011;6686;51.292;4.166;2022-10-31T13:36:21;17.67;;;13.93;;
13238;SDS011;6686;51.292;4.166;2022-10-31T13:39:34;21.30;;;14.70;;
13238;SDS011;6686;51.292;4.166;2022-10-31T13:45:29;18.37;;;14.53;;
13238;SDS011;6686;51.292;4.166;2022-10-31T13:51:05;23.97;;;14.73;;
13238;SDS011;6686;51.292;4.166;2022-10-31T13:56:51;19.53;;;14.23;;
13238;SDS011;6686;51.292;4.166;2022-10-31T13:59:37;23.73;;;14.37;;
13238;SDS011;6686;51.292;4.166;2022-10-31T14:02:34;19.43;;;14.13;;
13238;SDS011;6686;51.292;4.166;2022-10-31T14:05:19;22.67;;;15.10;;
13238;SDS011;6686;51.292;4.166;2022-10-31T14:08:02;25.53;;;15.07;;
13238;SDS011;6686;51.292;4.166;2022-10-31T14:10:48;19.43;;;14.77;;
13238;SDS011;6686;51.292;4.166;2022-10-31T14:16:29;21.67;;;17.13;;
13238;SDS011;6686;51.292;4.166;2022-10-31T14:19:15;22.57;;;15.50;;
13238;SDS011;6686;51.292;4.166;2022-10-31T14:21:59;21.43;;;15.63;;
13238;SDS011;6686;51.292;4.166;2022-10-31T14:24:45;24.90;;;15.77;;
13238;SDS011;6686;51.292;4.166;2022-10-31T14:27:35;23.87;;;16.00;;
13238;SDS011;6686;51.292;4.166;2022-10-31T14:30:21;28.33;;;16.90;;
13238;SDS011;6686;51.292;4.166;2022-10-31T14:33:12;26.07;;;16.40;;
13238;SDS011;6686;51.292;4.166;2022-10-31T14:38:49;23.27;;;16.57;;
13238;SDS011;6686;51.292;4.166;2022-10-31T14:41:42;23.90;;;16.73;;
13238;SDS011;6686;51.292;4.166;2022-10-31T14:47:36;26.53;;;17.30;;
13238;SDS011;6686;51.292;4.166;2022-10-31T14:50:24;24.53;;;15.70;;
13238;SDS011;6686;51.292;4.166;2022-10-31T14:53:11;27.53;;;15.17;;
13238;SDS011;6686;51.292;4.166;2022-10-31T14:55:55;24.90;;;15.27;;
13238;SDS011;6686;51.292;4.166;2022-10-31T14:58:43;28.83;;;16.53;;
13238;SDS011;6686;51.292;4.166;2022-10-31T15:01:31;20.87;;;15.93;;
13238;SDS011;6686;51.292;4.166;2022-10-31T15:04:23;22.60;;;14.60;;
13238;SDS011;6686;51.292;4.166;2022-10-31T15:07:11;20.27;;;14.37;;
13238;SDS011;6686;51.292;4.166;2022-10-31T15:10:04;25.00;;;15.20;;
13238;SDS011;6686;51.292;4.166;2022-10-31T15:12:48;25.35;;;17.02;;
13238;SDS011;6686;51.292;4.166;2022-10-31T15:15:34;24.10;;;14.45;;
13238;SDS011;6686;51.292;4.166;2022-10-31T15:18:26;19.07;;;11.97;;
13238;SDS011;6686;51.292;4.166;2022-10-31T15:21:14;17.47;;;10.83;;
13238;SDS011;6686;51.292;4.166;2022-10-31T15:23:59;13.63;;;10.23;;
13238;SDS011;6686;51.292;4.166;2022-10-31T15:26:45;13.63;;;10.20;;
13238;SDS011;6686;51.292;4.166;2022-10-31T15:29:33;14.77;;;9.73;;
13238;SDS011;6686;51.292;4.166;2022-10-31T15:32:20;13.13;;;8.73;;
13238;SDS011;6686;51.292;4.166;2022-10-31T15:35:25;15.17;;;10.17;;
13238;SDS011;6686;51.292;4.166;2022-10-31T15:38:06;13.63;;;9.70;;
13238;SDS011;6686;51.292;4.166;2022-10-31T15:40:56;17.90;;;9.93;;
13238;SDS011;6686;51.292;4.166;2022-10-31T15:43:38;15.10;;;9.50;;
13238;SDS011;6686;51.292;4.166;2022-10-31T15:46:24;15.40;;;9.10;;
13238;SDS011;6686;51.292;4.166;2022-10-31T15:49:15;14.97;;;9.63;;
13238;SDS011;6686;51.292;4.166;2022-10-31T15:51:56;15.57;;;9.57;;
13238;SDS011;6686;51.292;4.166;2022-10-31T15:54:44;14.87;;;9.17;;
13238;SDS011;6686;51.292;4.166;2022-10-31T15:57:28;14.00;;;8.40;;
13238;SDS011;6686;51.292;4.166;2022-10-31T16:06:04;14.70;;;9.00;;
13238;SDS011;6686;51.292;4.166;2022-10-31T16:08:50;18.77;;;9.93;;
13238;SDS011;6686;51.292;4.166;2022-10-31T16:11:36;12.60;;;9.03;;
13238;SDS011;6686;51.292;4.166;2022-10-31T16:14:27;16.93;;;8.87;;
13238;SDS011;6686;51.292;4.166;2022-10-31T16:17:13;16.27;;;10.03;;
13238;SDS011;6686;51.292;4.166;2022-10-31T16:20:02;15.43;;;10.10;;
13238;SDS011;6686;51.292;4.166;2022-10-31T16:22:48;19.13;;;9.50;;
13238;SDS011;6686;51.292;4.166;2022-10-31T16:25:36;12.57;;;8.93;;
13238;SDS011;6686;51.292;4.166;2022-10-31T16:28:21;15.90;;;10.13;;
13238;SDS011;6686;51.292;4.166;2022-10-31T16:31:13;13.23;;;9.77;;
13238;SDS011;6686;51.292;4.166;2022-10-31T16:34:02;13.53;;;8.37;;
13238;SDS011;6686;51.292;4.166;2022-10-31T16:36:47;15.90;;;9.00;;
13238;SDS011;6686;51.292;4.166;2022-10-31T16:39:34;17.27;;;9.77;;
13238;SDS011;6686;51.292;4.166;2022-10-31T16:42:20;15.67;;;9.90;;
13238;SDS011;6686;51.292;4.166;2022-10-31T16:45:06;12.67;;;8.83;;
13238;SDS011;6686;51.292;4.166;2022-10-31T16:47:51;43.97;;;35.17;;
13238;SDS011;6686;51.292;4.166;2022-10-31T16:50:37;28.70;;;19.37;;
13238;SDS011;6686;51.292;4.166;2022-10-31T16:53:23;19.13;;;12.03;;
13238;SDS011;6686;51.292;4.166;2022-10-31T16:56:16;17.00;;;12.40;;
13238;SDS011;6686;51.292;4.166;2022-10-31T16:59:09;20.27;;;15.33;;
13238;SDS011;6686;51.292;4.166;2022-10-31T17:01:54;20.73;;;12.83;;
13238;SDS011;6686;51.292;4.166;2022-10-31T17:04:40;19.77;;;12.40;;
13238;SDS011;6686;51.292;4.166;2022-10-31T17:07:29;20.13;;;12.33;;
13238;SDS011;6686;51.292;4.166;2022-10-31T17:10:14;20.87;;;11.93;;
13238;SDS011;6686;51.292;4.166;2022-10-31T17:13:01;21.43;;;11.87;;
13238;SDS011;6686;51.292;4.166;2022-10-31T17:15:47;19.73;;;12.10;;
13238;SDS011;6686;51.292;4.166;2022-10-31T17:18:32;15.50;;;11.20;;
13238;SDS011;6686;51.292;4.166;2022-10-31T17:21:21;23.93;;;12.30;;
13238;SDS011;6686;51.292;4.166;2022-10-31T17:24:08;19.67;;;12.83;;
13238;SDS011;6686;51.292;4.166;2022-10-31T17:26:53;15.37;;;11.17;;
13238;SDS011;6686;51.292;4.166;2022-10-31T17:29:39;23.30;;;12.13;;
13238;SDS011;6686;51.292;4.166;2022-10-31T17:32:25;20.80;;;12.40;;
13238;SDS011;6686;51.292;4.166;2022-10-31T17:35:12;20.10;;;13.10;;
13238;SDS011;6686;51.292;4.166;2022-10-31T17:37:58;21.77;;;13.35;;
13238;SDS011;6686;51.292;4.166;2022-10-31T17:40:44;20.13;;;10.90;;
13238;SDS011;6686;51.292;4.166;2022-10-31T17:43:30;20.87;;;11.27;;
13238;SDS011;6686;51.292;4.166;2022-10-31T17:46:16;19.87;;;12.60;;
13238;SDS011;6686;51.292;4.166;2022-10-31T17:49:02;17.87;;;12.37;;
13238;SDS011;6686;51.292;4.166;2022-10-31T17:51:48;20.77;;;10.90;;
13238;SDS011;6686;51.292;4.166;2022-10-31T17:54:34;19.27;;;11.23;;
13238;SDS011;6686;51.292;4.166;2022-10-31T17:57:20;21.43;;;11.77;;
13238;SDS011;6686;51.292;4.166;2022-10-31T18:00:07;18.70;;;10.33;;
13238;SDS011;6686;51.292;4.166;2022-10-31T18:02:52;20.77;;;12.10;;
13238;SDS011;6686;51.292;4.166;2022-10-31T18:05:38;18.73;;;11.50;;
13238;SDS011;6686;51.292;4.166;2022-10-31T18:08:27;16.90;;;11.13;;
13238;SDS011;6686;51.292;4.166;2022-10-31T18:11:16;17.35;;;11.35;;
13238;SDS011;6686;51.292;4.166;2022-10-31T18:14:01;17.90;;;10.47;;
13238;SDS011;6686;51.292;4.166;2022-10-31T18:16:48;17.80;;;12.95;;
13238;SDS011;6686;51.292;4.166;2022-10-31T18:19:33;16.83;;;10.60;;
13238;SDS011;6686;51.292;4.166;2022-10-31T18:22:19;22.07;;;11.83;;
13238;SDS011;6686;51.292;4.166;2022-10-31T18:25:05;13.57;;;10.07;;